Blytheville, Arkansas
Current Conditions -  °F | °C
As of 1:27 PM on Thursday 23 Oct 2014 (Local Time) from KHKA Reporting Station
Haze Haze  
Wind Chill: 63°   Ceiling: Unl
Heat Index: 63°   Visibility: 6mi
Dew Point: 45°   Wind: 5mph
Humidity: 52%   Direction: 30°NNE
Pressure: 30.18"   Gusts: NA
Location:  35.93°N, 89.9°W
Report Text: KHKA 231827Z AUTO 03004KT 6SM HZ FEW002 17/07 A3018 RMK AO2 T01720072
Loading
Personal Weather Stations






























Interactive Weather Map
Tropical Storm Tracking
New forecast layout! Learn more

10-Day Weather Forecast

Advertisements
Track Severe Weather on mobile